Terminal Aerodrome Forecast
Issued by NWS Jacksonville, FL

Current Version | Previous Version | Text Only | Print | Product List | Glossary On
Versions: 1 2 3 4 5 6 7 8 9 10 11 12 13 14 15 16 17 18 19 20 21 22 23 24 25
000
FTUS42 KJAX 202000 AAB
TAFGNV
TAF AMD
KGNV 202044Z 2021/2118 03010KT P6SM VCSH SCT025 BKN060
      TEMPO 2021/2022 04015G25KT 6SM SHRA SCT020 BKN030
     FM202200 36008KT P6SM VCSH SCT035 BKN150
     FM210300 34004KT P6SM SCT025=

USA.gov is the U.S. government's official web portal to all federal, state and local government web resources and services.